Date,TemperatureHighF,TemperatureAvgF,TemperatureLowF,DewpointHighF,DewpointAvgF,DewpointLowF,HumidityHigh,HumidityAvg,HumidityLow,PressureMaxIn,PressureMinIn,WindSpeedMaxMPH,WindSpeedAvgMPH,GustSpeedMaxMPH,PrecipitationSumIn
2013-12-1,73.6,57.5,46.4,47.1,43.3,39.2,84,61,35,30.17,30.06,7,1,10,0.00
2013-12-2,71.0,53.0,42.1,43.4,39.2,35.9,83,62,33,30.11,29.91,7,1,11,0.00
2013-12-3,70.6,57.6,45.0,41.2,34.8,16.9,71,47,14,29.91,29.70,14,2,15,0.00
2013-12-4,65.2,55.4,44.3,45.9,41.8,34.9,93,62,40,29.87,29.68,21,5,22,0.39
2013-12-5,48.2,41.8,32.2,43.3,34.3,25.1,93,76,47,30.12,29.84,6,1,9,0.09
2013-12-6,51.5,38.1,29.3,28.0,24.3,20.1,86,60,31,30.25,30.12,8,2,10,0.01
2013-12-7,54.8,41.4,29.5,32.5,25.2,15.1,80,57,21,30.14,30.02,12,2,15,0.00
2013-12-8,53.3,46.2,39.9,39.8,36.2,29.7,78,68,57,30.14,30.02,7,2,10,0.00
2013-12-9,51.2,41.3,30.6,33.6,21.1,9.7,80,47,22,30.33,30.09,10,2,12,0.00
2013-12-10,57.7,44.3,34.1,20.4,15.2,11.1,41,31,21,30.31,30.15,13,6,14,0.00
2013-12-11,67.3,53.4,42.9,35.5,26.2,16.1,54,35,26,30.22,30.12,14,6,15,0.00
2013-12-12,69.7,53.7,41.2,41.2,33.3,26.4,72,47,33,30.15,30.00,14,4,16,0.00
2013-12-13,60.5,47.4,35.7,34.6,31.5,28.6,78,56,35,30.20,30.06,10,1,11,0.00
2013-12-14,62.5,50.7,37.7,30.3,25.0,20.7,70,38,23,30.30,30.18,14,4,15,0.00
2013-12-15,66.1,52.3,42.0,29.5,23.7,21.3,45,34,20,30.30,30.18,12,4,16,0.00
2013-12-16,73.8,56.9,47.2,30.8,25.4,23.1,39,30,19,30.21,30.11,12,5,15,0.00
2013-12-17,77.3,62.2,52.3,30.0,25.8,23.4,33,26,15,30.18,30.03,14,7,17,0.00
2013-12-18,76.1,60.0,53.2,32.9,26.5,23.1,42,29,14,30.03,29.78,13,4,15,0.00
2013-12-19,67.4,57.7,47.8,41.1,28.5,22.8,76,35,19,29.80,29.63,21,6,24,0.00
2013-12-20,52.0,45.7,41.3,43.6,39.6,37.2,92,80,60,29.83,29.59,13,3,23,0.48
2013-12-21,52.1,45.0,38.2,40.0,38.1,33.8,92,78,57,30.09,29.83,12,2,16,0.01
2013-12-22,57.3,44.9,34.8,40.7,36.2,32.3,92,74,40,30.31,30.08,8,1,10,0.00
2013-12-23,61.2,48.9,38.2,37.6,32.5,27.3,82,55,33,30.37,30.24,9,3,12,0.00
2013-12-24,65.3,51.5,40.9,31.6,26.7,21.9,51,39,19,30.24,30.11,12,5,14,0.00
2013-12-25,65.0,51.4,41.7,37.0,27.8,22.9,56,40,28,30.24,30.12,11,4,16,0.00
2013-12-26,65.0,51.0,40.0,29.5,24.5,21.1,58,37,21,30.21,30.11,10,3,11,0.00
2013-12-27,67.0,52.7,42.2,27.7,22.0,15.3,47,32,15,30.21,30.09,12,4,15,0.00
2013-12-28,63.5,50.7,36.9,30.8,23.8,17.1,56,36,18,30.12,29.95,10,2,12,0.00
2013-12-29,62.4,50.2,38.8,30.5,27.1,19.2,64,43,19,30.15,29.96,12,3,13,0.00
2013-12-30,64.9,52.5,43.2,31.8,25.3,20.8,49,36,19,30.26,30.14,9,3,12,0.00
2013-12-31,70.0,54.5,43.2,29.5,24.1,20.0,46,32,17,30.24,30.08,13,4,14,0.00